createdAt,value
2023-03-02T00:02:05.183Z,78.06
2023-03-02T00:04:53.348Z,78.83
2023-03-02T00:07:34.977Z,79.43
2023-03-02T00:10:01.770Z,78.84
2023-03-02T00:12:31.837Z,78.03
2023-03-02T00:14:58.360Z,77.44
2023-03-02T00:17:27.815Z,78.39
2023-03-02T00:20:10.318Z,78.44
2023-03-02T00:22:42.074Z,78.20
2023-03-02T00:25:10.530Z,77.94
2023-03-02T00:27:39.679Z,78.04
2023-03-02T00:30:08.068Z,76.86
2023-03-02T00:32:35.055Z,76.50
2023-03-02T00:35:01.605Z,76.58
2023-03-02T00:37:28.266Z,76.45
2023-03-02T00:40:01.614Z,74.81
2023-03-02T00:42:28.413Z,75.33
2023-03-02T00:44:54.979Z,77.27
2023-03-02T00:47:21.559Z,78.73
2023-03-02T00:49:49.417Z,78.06
2023-03-02T00:52:17.102Z,77.75
2023-03-02T00:54:43.623Z,77.84
2023-03-02T00:57:10.248Z,78.39
2023-03-02T00:59:39.925Z,77.79
2023-03-02T01:02:06.969Z,78.00
2023-03-02T01:04:36.308Z,78.63
2023-03-02T01:07:15.569Z,77.19
2023-03-02T01:09:43.433Z,78.04
2023-03-02T01:12:11.280Z,78.71
2023-03-02T01:14:44.273Z,78.39
2023-03-02T01:17:11.837Z,79.80
2023-03-02T01:19:39.059Z,79.41
2023-03-02T01:22:06.420Z,80.26
2023-03-02T01:24:35.981Z,80.05
2023-03-02T01:27:02.587Z,81.60
2023-03-02T01:29:29.244Z,80.65
2023-03-02T01:32:01.082Z,79.72
2023-03-02T01:34:27.594Z,80.84
2023-03-02T01:36:54.641Z,80.46
2023-03-02T01:39:22.564Z,79.80
2023-03-02T01:41:53.253Z,80.03
2023-03-02T01:44:41.588Z,79.42
2023-03-02T01:47:18.688Z,78.81
2023-03-02T01:49:49.969Z,79.63
2023-03-02T01:52:17.417Z,79.04
2023-03-02T01:54:49.956Z,79.12
2023-03-02T01:57:22.492Z,78.89
2023-03-02T01:59:53.869Z,78.50
2023-03-02T02:02:20.444Z,79.25
2023-03-02T02:04:49.118Z,79.57
2023-03-02T02:07:16.289Z,79.56
2023-03-02T02:09:51.616Z,79.25
2023-03-02T02:12:23.593Z,79.60
2023-03-02T02:14:50.768Z,80.22
2023-03-02T02:17:19.024Z,79.36
2023-03-02T02:20:19.587Z,78.19
2023-03-02T02:23:05.066Z,79.97
2023-03-02T02:25:49.765Z,81.47
2023-03-02T02:28:49.630Z,81.71
2023-03-02T02:31:21.233Z,81.47
2023-03-02T02:33:53.670Z,80.89
2023-03-02T02:36:23.725Z,81.14
2023-03-02T02:38:54.177Z,81.99
2023-03-02T02:41:25.707Z,82.47
2023-03-02T02:43:53.906Z,82.38
2023-03-02T02:46:20.645Z,81.21
2023-03-02T02:48:47.238Z,82.00
2023-03-02T02:51:21.352Z,82.61
2023-03-02T02:54:01.423Z,82.26
2023-03-02T02:56:33.825Z,83.22
2023-03-02T02:59:07.932Z,83.99
2023-03-02T03:01:35.936Z,83.62
2023-03-02T03:04:05.104Z,83.63
2023-03-02T03:06:42.050Z,83.74
2023-03-02T03:09:11.223Z,83.12
2023-03-02T03:11:43.050Z,84.42
2023-03-02T03:14:15.469Z,84.16
2023-03-02T03:16:45.940Z,83.67
2023-03-02T03:19:32.943Z,82.73
2023-03-02T03:22:03.464Z,83.70
2023-03-02T03:24:32.170Z,83.47
2023-03-02T03:26:59.177Z,84.42
2023-03-02T03:29:28.854Z,84.78
2023-03-02T03:31:57.042Z,83.87
2023-03-02T03:34:25.207Z,84.57
2023-03-02T03:36:52.143Z,83.88
2023-03-02T03:39:20.121Z,82.93
2023-03-02T03:41:46.797Z,82.65
2023-03-02T03:44:13.254Z,82.41
2023-03-02T03:46:39.789Z,81.07
2023-03-02T03:49:06.302Z,81.07
2023-03-02T03:51:35.580Z,83.16
2023-03-02T03:54:04.345Z,81.20
2023-03-02T03:56:33.905Z,81.20
2023-03-02T03:59:07.627Z,82.13
2023-03-02T04:01:38.086Z,81.46
2023-03-02T04:04:07.342Z,83.17
2023-03-02T04:06:34.712Z,81.61
2023-03-02T04:09:04.878Z,82.44
2023-03-02T04:11:34.209Z,81.86
2023-03-02T04:14:01.215Z,82.29
2023-03-02T04:16:28.556Z,83.29
2023-03-02T04:18:55.042Z,83.21
2023-03-02T04:21:21.660Z,82.99
2023-03-02T04:24:00.197Z,80.34
2023-03-02T04:26:27.278Z,80.40
2023-03-02T04:28:56.834Z,81.70
2023-03-02T04:31:25.514Z,80.75
2023-03-02T04:33:52.016Z,81.19
2023-03-02T04:36:19.651Z,81.16
2023-03-02T04:38:47.975Z,82.32
2023-03-02T04:41:22.349Z,80.72
2023-03-02T04:43:49.464Z,81.12
2023-03-02T04:46:20.045Z,80.52
2023-03-02T04:48:47.675Z,82.41
2023-03-02T04:51:24.212Z,82.19
2023-03-02T04:53:56.392Z,81.52
2023-03-02T04:56:23.124Z,82.03
2023-03-02T04:58:49.682Z,81.29
2023-03-02T05:01:18.067Z,81.46
2023-03-02T05:03:44.579Z,83.47
2023-03-02T05:06:11.380Z,84.01
2023-03-02T05:08:38.558Z,84.33
2023-03-02T05:11:08.325Z,82.26
2023-03-02T05:13:35.808Z,84.43
2023-03-02T05:16:02.685Z,84.95
2023-03-02T05:18:29.431Z,84.64
2023-03-02T05:20:55.986Z,83.64
2023-03-02T05:23:27.105Z,84.63
2023-03-02T05:25:56.934Z,83.99
2023-03-02T05:28:26.060Z,84.87
2023-03-02T05:30:53.245Z,86.01
2023-03-02T05:33:19.930Z,85.44
2023-03-02T05:35:47.712Z,87.21
2023-03-02T05:38:14.831Z,85.76
2023-03-02T05:40:43.607Z,85.91
2023-03-02T05:43:16.063Z,86.23
2023-03-02T05:45:42.629Z,86.95
2023-03-02T05:48:10.481Z,86.72
2023-03-02T05:50:46.138Z,86.61
2023-03-02T05:53:13.171Z,87.21
2023-03-02T05:55:39.679Z,87.37
2023-03-02T05:58:09.071Z,88.16
2023-03-02T06:00:35.730Z,86.90
2023-03-02T06:03:02.313Z,88.12
2023-03-02T06:05:28.842Z,86.94
2023-03-02T06:07:55.262Z,87.52
2023-03-02T06:10:22.030Z,86.80
2023-03-02T06:12:48.499Z,86.14
2023-03-02T06:15:16.296Z,87.03
2023-03-02T06:17:42.918Z,88.35
2023-03-02T06:20:12.443Z,86.63
2023-03-02T06:22:45.254Z,85.37
2023-03-02T06:25:23.848Z,85.69
2023-03-02T06:27:51.742Z,83.68
2023-03-02T06:30:24.542Z,82.78
2023-03-02T06:32:51.717Z,83.87
2023-03-02T06:35:18.500Z,83.58
2023-03-02T06:37:46.124Z,81.18
2023-03-02T06:40:13.903Z,79.01
2023-03-02T06:42:41.958Z,78.69
2023-03-02T06:45:10.323Z,77.44
2023-03-02T06:47:37.116Z,75.96
2023-03-02T06:50:04.634Z,74.66
2023-03-02T06:52:31.166Z,73.13
2023-03-02T06:55:01.679Z,72.07
2023-03-02T06:57:34.091Z,72.02
2023-03-02T07:00:09.688Z,69.40
2023-03-02T07:02:37.237Z,68.82
2023-03-02T07:05:04.222Z,66.94
2023-03-02T07:07:30.734Z,65.16
2023-03-02T07:09:57.301Z,64.66
2023-03-02T07:12:23.772Z,64.39
2023-03-02T07:14:50.336Z,62.78
2023-03-02T07:17:16.837Z,62.06
2023-03-02T07:19:43.376Z,61.05
2023-03-02T07:22:09.881Z,61.69
2023-03-02T07:24:37.347Z,60.78
2023-03-02T07:27:04.383Z,59.75
2023-03-02T07:29:30.890Z,59.11
2023-03-02T07:32:00.275Z,57.99
2023-03-02T07:34:27.544Z,57.15
2023-03-02T07:36:55.341Z,58.24
2023-03-02T07:39:22.006Z,57.76
2023-03-02T07:41:48.703Z,56.60
2023-03-02T07:44:17.227Z,54.57
2023-03-02T07:46:43.744Z,55.26
2023-03-02T07:49:10.465Z,55.12
2023-03-02T07:51:37.253Z,54.07
2023-03-02T07:54:05.035Z,54.37
2023-03-02T07:56:31.672Z,53.60
2023-03-02T07:58:58.207Z,52.92
2023-03-02T08:01:26.010Z,52.95
2023-03-02T08:03:52.651Z,52.71
2023-03-02T08:06:19.153Z,53.82
2023-03-02T08:08:46.025Z,52.74
2023-03-02T08:11:15.867Z,52.67
2023-03-02T08:13:43.062Z,52.86
2023-03-02T08:16:11.640Z,53.63
2023-03-02T08:18:40.752Z,53.02
2023-03-02T08:21:22.244Z,52.15
2023-03-02T08:23:50.718Z,52.15
2023-03-02T08:26:18.740Z,52.47
2023-03-02T08:28:45.647Z,51.80
2023-03-02T08:31:13.320Z,52.10
2023-03-02T08:33:40.126Z,51.92
2023-03-02T08:36:10.683Z,51.37
2023-03-02T08:38:37.470Z,50.69
2023-03-02T08:41:10.761Z,51.66
2023-03-02T08:43:37.407Z,50.89
2023-03-02T08:46:04.059Z,50.52
2023-03-02T08:48:30.593Z,50.85
2023-03-02T08:51:07.184Z,51.01
2023-03-02T08:53:37.169Z,49.49
2023-03-02T08:56:04.234Z,49.02
2023-03-02T08:58:30.692Z,49.23
2023-03-02T09:00:57.206Z,49.63
2023-03-02T09:03:23.933Z,49.22
2023-03-02T09:05:51.035Z,48.01
2023-03-02T09:08:18.512Z,49.05
2023-03-02T09:10:45.137Z,50.33
2023-03-02T09:13:11.662Z,49.01
2023-03-02T09:15:38.173Z,48.73
2023-03-02T09:18:04.912Z,48.77
2023-03-02T09:20:32.185Z,47.37
2023-03-02T09:22:59.781Z,47.99
2023-03-02T09:25:26.286Z,46.92
2023-03-02T09:27:53.855Z,47.90
2023-03-02T09:30:20.324Z,47.49
2023-03-02T09:32:49.006Z,47.45
2023-03-02T09:35:15.691Z,46.45
2023-03-02T09:37:44.514Z,46.55
2023-03-02T09:40:22.256Z,47.61
2023-03-02T09:43:11.626Z,47.46
2023-03-02T09:45:50.129Z,46.39
2023-03-02T09:48:29.561Z,45.79
2023-03-02T09:51:05.413Z,46.49
2023-03-02T09:53:42.100Z,45.91
2023-03-02T09:56:20.054Z,46.29
2023-03-02T09:59:01.246Z,46.26
2023-03-02T10:01:36.521Z,46.75
2023-03-02T10:04:17.762Z,46.39
2023-03-02T10:06:46.709Z,47.34
2023-03-02T10:09:13.317Z,47.06
2023-03-02T10:11:44.445Z,47.07
2023-03-02T10:14:19.976Z,46.86
2023-03-02T10:17:10.065Z,46.42
2023-03-02T10:19:49.929Z,46.59
2023-03-02T10:22:20.384Z,46.70
2023-03-02T10:24:53.900Z,46.81
2023-03-02T10:27:26.294Z,46.64
2023-03-02T10:30:06.531Z,46.58
2023-03-02T10:32:37.422Z,47.39
2023-03-02T10:35:21.179Z,47.51
2023-03-02T10:37:48.324Z,47.95
2023-03-02T10:40:40.042Z,47.13
2023-03-02T10:43:15.363Z,48.07
2023-03-02T10:45:43.192Z,48.37
2023-03-02T10:48:12.732Z,47.68
2023-03-02T10:50:39.581Z,48.12
2023-03-02T10:53:25.233Z,47.62
2023-03-02T10:55:53.570Z,47.50
2023-03-02T10:58:20.149Z,47.65
2023-03-02T11:01:15.048Z,48.15
2023-03-02T11:03:42.658Z,48.04
2023-03-02T11:06:19.053Z,47.82
2023-03-02T11:08:58.445Z,47.08
2023-03-02T11:11:25.225Z,47.48
2023-03-02T11:13:51.754Z,47.87
2023-03-02T11:16:18.196Z,48.38
2023-03-02T11:18:52.425Z,49.18
2023-03-02T11:21:42.908Z,48.48
2023-03-02T11:24:18.474Z,48.07
2023-03-02T11:26:50.108Z,48.51
2023-03-02T11:29:16.624Z,47.87
2023-03-02T11:31:50.643Z,48.25
2023-03-02T11:34:20.092Z,48.57
2023-03-02T11:37:21.631Z,48.43
2023-03-02T11:39:55.103Z,48.17
2023-03-02T11:42:31.593Z,47.84
2023-03-02T11:45:06.250Z,48.18
2023-03-02T11:47:34.086Z,49.20
2023-03-02T11:50:05.394Z,48.31
2023-03-02T11:52:36.752Z,48.59
2023-03-02T11:55:18.400Z,49.32
2023-03-02T11:57:49.875Z,48.67
2023-03-02T12:00:38.997Z,48.96
2023-03-02T12:03:25.698Z,48.77
2023-03-02T12:05:52.098Z,48.26
2023-03-02T12:08:18.471Z,49.51
2023-03-02T12:10:57.201Z,49.04
2023-03-02T12:13:26.494Z,48.29
2023-03-02T12:15:53.297Z,50.25
2023-03-02T12:18:22.698Z,49.48
2023-03-02T12:21:05.594Z,49.40
2023-03-02T12:23:53.155Z,48.86
2023-03-02T12:26:19.568Z,49.21
2023-03-02T12:29:09.635Z,49.40
2023-03-02T12:31:56.509Z,47.78
2023-03-02T12:34:35.281Z,49.44
2023-03-02T12:37:08.258Z,48.23
2023-03-02T12:40:03.937Z,49.49
2023-03-02T12:42:52.009Z,49.54
2023-03-02T12:45:40.249Z,48.75
2023-03-02T12:48:20.459Z,47.97
2023-03-02T12:50:48.014Z,47.67
2023-03-02T12:53:19.578Z,48.18
2023-03-02T12:55:46.838Z,49.26
2023-03-02T12:58:23.896Z,49.73
2023-03-02T13:01:02.046Z,48.90
2023-03-02T13:03:31.632Z,48.07
2023-03-02T13:06:13.413Z,48.88
2023-03-02T13:08:43.106Z,47.90
2023-03-02T13:11:09.601Z,49.20
2023-03-02T13:13:43.041Z,49.53
2023-03-02T13:16:32.512Z,49.11
2023-03-02T13:19:05.854Z,48.35
2023-03-02T13:21:39.416Z,48.02
2023-03-02T13:24:36.037Z,49.67
2023-03-02T13:27:14.165Z,48.36
2023-03-02T13:29:40.710Z,49.49
2023-03-02T13:32:35.393Z,48.65
2023-03-02T13:35:07.421Z,48.26
2023-03-02T13:37:40.754Z,48.02
2023-03-02T13:40:27.400Z,48.71
2023-03-02T13:42:54.669Z,48.12
2023-03-02T13:45:23.439Z,48.48
2023-03-02T13:47:50.015Z,47.93
2023-03-02T13:50:22.290Z,48.29
2023-03-02T13:52:50.106Z,48.76
2023-03-02T13:55:19.532Z,48.29
2023-03-02T13:57:47.459Z,49.79
2023-03-02T14:00:16.874Z,49.46
2023-03-02T14:02:43.805Z,49.29
2023-03-02T14:05:17.722Z,49.13
2023-03-02T14:07:53.212Z,49.64
2023-03-02T14:10:20.721Z,49.47
2023-03-02T14:12:58.312Z,48.73
2023-03-02T14:15:25.358Z,48.73
2023-03-02T14:17:51.837Z,49.19
2023-03-02T14:20:20.342Z,48.96
2023-03-02T14:22:50.754Z,48.36
2023-03-02T14:25:20.478Z,48.56
2023-03-02T14:27:48.165Z,48.99
2023-03-02T14:30:20.182Z,48.96
2023-03-02T14:32:48.794Z,49.08
2023-03-02T14:35:16.756Z,49.40
2023-03-02T14:37:47.299Z,49.17
2023-03-02T14:40:18.535Z,48.98
2023-03-02T14:42:45.097Z,49.45
2023-03-02T14:45:12.409Z,50.10
2023-03-02T14:47:41.011Z,51.13
2023-03-02T14:50:08.137Z,50.45
2023-03-02T14:52:42.879Z,49.95
2023-03-02T14:55:19.858Z,50.29
2023-03-02T14:57:50.045Z,49.65
2023-03-02T15:00:16.881Z,49.46
2023-03-02T15:02:49.494Z,48.82
2023-03-02T15:05:16.403Z,48.34
2023-03-02T15:07:43.414Z,49.37
2023-03-02T15:10:18.818Z,49.60
2023-03-02T15:12:45.500Z,49.09
2023-03-02T15:15:12.740Z,48.62
2023-03-02T15:17:40.589Z,48.64
2023-03-02T15:20:08.186Z,49.87
2023-03-02T15:22:34.996Z,49.23
2023-03-02T15:25:01.468Z,49.40
2023-03-02T15:27:28.580Z,49.82
2023-03-02T15:29:56.872Z,50.26
2023-03-02T15:32:23.706Z,50.51
2023-03-02T15:34:50.161Z,50.31
2023-03-02T15:37:16.745Z,50.18
2023-03-02T15:39:44.504Z,49.84
2023-03-02T15:42:12.765Z,49.52
2023-03-02T15:44:40.472Z,50.14
2023-03-02T15:47:07.090Z,50.14
2023-03-02T15:49:33.621Z,50.08
2023-03-02T15:52:00.148Z,51.44
2023-03-02T15:54:29.426Z,51.63
2023-03-02T15:56:56.796Z,51.03
2023-03-02T15:59:25.558Z,50.66
2023-03-02T16:01:52.563Z,50.01
2023-03-02T16:04:19.888Z,50.61
2023-03-02T16:06:47.565Z,51.26
2023-03-02T16:09:14.081Z,50.75
2023-03-02T16:11:41.080Z,51.44
2023-03-02T16:14:07.597Z,51.18
2023-03-02T16:16:34.206Z,51.35
2023-03-02T16:19:01.224Z,52.25
2023-03-02T16:21:28.948Z,52.01
2023-03-02T16:24:03.300Z,52.09
2023-03-02T16:26:31.117Z,52.11
2023-03-02T16:28:57.720Z,52.96
2023-03-02T16:31:28.496Z,53.14
2023-03-02T16:33:57.510Z,53.07
2023-03-02T16:36:24.039Z,53.35
2023-03-02T16:38:52.234Z,54.01
2023-03-02T16:41:21.224Z,53.87
2023-03-02T16:43:53.758Z,53.67
2023-03-02T16:46:23.094Z,54.90
2023-03-02T16:48:57.233Z,55.42
2023-03-02T16:51:24.090Z,55.88
2023-03-02T16:53:50.653Z,55.82
2023-03-02T16:56:17.195Z,56.33
2023-03-02T16:58:46.130Z,57.21
2023-03-02T17:01:16.553Z,57.37
2023-03-02T17:03:44.190Z,57.08
2023-03-02T17:06:12.627Z,57.65
2023-03-02T17:08:39.482Z,57.84
2023-03-02T17:11:06.586Z,58.46
2023-03-02T17:13:33.223Z,58.78
2023-03-02T17:16:00.273Z,58.86
2023-03-02T17:18:27.901Z,59.21
2023-03-02T17:20:56.271Z,59.01
2023-03-02T17:23:23.480Z,58.15
2023-03-02T17:25:55.881Z,58.33
2023-03-02T17:28:22.643Z,58.68
2023-03-02T17:30:49.418Z,59.36
2023-03-02T17:33:18.238Z,60.12
2023-03-02T17:35:46.365Z,60.73
2023-03-02T17:38:13.212Z,60.60
2023-03-02T17:40:41.444Z,60.52
2023-03-02T17:43:11.454Z,60.59
2023-03-02T17:45:38.785Z,60.62
2023-03-02T17:48:05.669Z,61.53
2023-03-02T17:50:32.512Z,62.02
2023-03-02T17:52:59.941Z,62.39
2023-03-02T17:55:29.226Z,62.67
2023-03-02T17:57:55.690Z,62.89
2023-03-02T18:00:23.490Z,62.10
2023-03-02T18:02:50.512Z,61.46
2023-03-02T18:05:17.310Z,62.46
2023-03-02T18:07:54.757Z,62.98
2023-03-02T18:10:21.296Z,62.66
2023-03-02T18:12:48.497Z,62.61
2023-03-02T18:15:14.972Z,63.26
2023-03-02T18:17:41.605Z,63.09
2023-03-02T18:20:09.936Z,63.08
2023-03-02T18:22:36.386Z,63.59
2023-03-02T18:25:03.247Z,63.68
2023-03-02T18:27:31.842Z,63.08
2023-03-02T18:29:58.729Z,63.64
2023-03-02T18:32:25.872Z,64.49
2023-03-02T18:34:52.413Z,64.91
2023-03-02T18:37:19.065Z,64.89
2023-03-02T18:39:45.904Z,65.88
2023-03-02T18:42:12.798Z,65.92
2023-03-02T18:44:39.493Z,65.89
2023-03-02T18:47:07.507Z,67.09
2023-03-02T18:49:33.981Z,66.93
2023-03-02T18:52:05.709Z,67.01
2023-03-02T18:54:32.751Z,68.14
2023-03-02T18:57:00.068Z,68.45
2023-03-02T18:59:26.534Z,68.86
2023-03-02T19:01:55.185Z,68.19
2023-03-02T19:04:26.484Z,69.31
2023-03-02T19:06:55.714Z,69.30
2023-03-02T19:09:25.505Z,68.68
2023-03-02T19:11:52.090Z,68.33
2023-03-02T19:14:18.793Z,68.17
2023-03-02T19:16:46.003Z,68.42
2023-03-02T19:19:12.623Z,68.28
2023-03-02T19:21:39.105Z,68.08
2023-03-02T19:24:06.117Z,68.48
2023-03-02T19:26:33.056Z,68.37
2023-03-02T19:29:00.761Z,68.43
2023-03-02T19:31:27.876Z,67.97
2023-03-02T19:33:54.561Z,68.20
2023-03-02T19:36:21.024Z,67.90
2023-03-02T19:38:47.625Z,68.95
2023-03-02T19:41:17.117Z,68.39
2023-03-02T19:43:46.230Z,68.51
2023-03-02T19:46:15.161Z,68.71
2023-03-02T19:48:45.681Z,68.02
2023-03-02T19:51:13.769Z,68.50
2023-03-02T19:53:49.489Z,68.83
2023-03-02T19:56:16.577Z,68.81
2023-03-02T19:58:53.729Z,68.73
2023-03-02T20:01:22.582Z,68.72
2023-03-02T20:03:52.914Z,68.54
2023-03-02T20:06:21.563Z,67.86
2023-03-02T20:08:49.714Z,68.10
2023-03-02T20:11:17.431Z,67.81
2023-03-02T20:13:44.400Z,68.12
2023-03-02T20:16:13.735Z,67.34
2023-03-02T20:18:42.259Z,67.80
2023-03-02T20:21:08.904Z,68.19
2023-03-02T20:23:39.492Z,68.16
2023-03-02T20:26:08.960Z,67.29
2023-03-02T20:28:36.278Z,66.78
2023-03-02T20:31:08.916Z,67.19
2023-03-02T20:33:41.316Z,67.26
2023-03-02T20:36:09.335Z,67.78
2023-03-02T20:38:40.661Z,66.96
2023-03-02T20:41:09.977Z,66.83
2023-03-02T20:43:36.727Z,67.21
2023-03-02T20:46:04.712Z,67.56
2023-03-02T20:48:31.438Z,67.76
2023-03-02T20:50:58.678Z,67.08
2023-03-02T20:53:26.385Z,66.99
2023-03-02T20:55:52.850Z,67.78
2023-03-02T20:58:19.695Z,66.43
2023-03-02T21:00:46.337Z,66.71
2023-03-02T21:03:12.848Z,66.46
2023-03-02T21:05:41.378Z,66.82
2023-03-02T21:08:14.662Z,66.36
2023-03-02T21:10:43.050Z,66.36
2023-03-02T21:13:11.636Z,65.89
2023-03-02T21:15:38.407Z,66.33
2023-03-02T21:18:05.422Z,66.32
2023-03-02T21:20:34.099Z,66.28
2023-03-02T21:23:00.560Z,66.36
2023-03-02T21:25:28.411Z,66.81
2023-03-02T21:27:56.334Z,66.80
2023-03-02T21:30:27.932Z,66.83
2023-03-02T21:32:54.694Z,67.10
2023-03-02T21:35:21.994Z,66.73
2023-03-02T21:37:52.350Z,68.04
2023-03-02T21:40:23.867Z,67.92
2023-03-02T21:42:50.341Z,67.91
2023-03-02T21:45:18.517Z,68.07
2023-03-02T21:47:51.171Z,68.83
2023-03-02T21:50:24.573Z,68.47
2023-03-02T21:52:51.061Z,68.23
2023-03-02T21:55:17.579Z,67.72
2023-03-02T21:57:44.633Z,67.96
2023-03-02T22:00:24.055Z,68.34
2023-03-02T22:02:51.037Z,68.13
2023-03-02T22:05:18.586Z,68.88
2023-03-02T22:07:45.659Z,68.48
2023-03-02T22:10:23.983Z,69.33
2023-03-02T22:12:56.035Z,68.40
2023-03-02T22:15:24.264Z,68.86
2023-03-02T22:17:51.391Z,67.98
2023-03-02T22:20:19.826Z,67.81
2023-03-02T22:22:47.960Z,68.22
2023-03-02T22:25:17.274Z,68.15
2023-03-02T22:27:44.763Z,68.23
2023-03-02T22:30:23.557Z,67.67
2023-03-02T22:32:50.601Z,68.59
2023-03-02T22:35:26.506Z,68.61
2023-03-02T22:38:11.695Z,68.36
2023-03-02T22:40:38.505Z,69.50
2023-03-02T22:43:24.734Z,72.13
2023-03-02T22:45:52.277Z,71.64
2023-03-02T22:48:22.986Z,72.99
2023-03-02T22:50:50.296Z,72.44
2023-03-02T22:53:23.309Z,72.58
2023-03-02T22:55:54.224Z,72.59
2023-03-02T22:58:48.526Z,72.96
2023-03-02T23:01:47.559Z,73.56
2023-03-02T23:04:18.415Z,72.78
2023-03-02T23:06:56.098Z,73.47
2023-03-02T23:09:34.926Z,74.40
2023-03-02T23:12:19.574Z,74.74
2023-03-02T23:14:52.110Z,74.66
2023-03-02T23:17:22.516Z,73.71
2023-03-02T23:19:50.744Z,73.69
2023-03-02T23:22:17.630Z,75.55
2023-03-02T23:24:44.107Z,75.51
2023-03-02T23:27:11.340Z,74.69
2023-03-02T23:29:38.202Z,74.50
2023-03-02T23:32:05.081Z,73.71
2023-03-02T23:34:31.740Z,73.78
2023-03-02T23:36:59.579Z,73.59
2023-03-02T23:39:26.763Z,74.01
2023-03-02T23:41:55.656Z,73.50
2023-03-02T23:44:22.218Z,74.09
2023-03-02T23:46:49.323Z,75.15
2023-03-02T23:49:16.034Z,74.66
2023-03-02T23:51:43.448Z,74.60
2023-03-02T23:54:14.681Z,75.58
2023-03-02T23:56:41.196Z,77.24
2023-03-02T23:59:07.692Z,75.84
